DW8209 Gubbio IT current weather conditions

sailwx.info

Wind from 355 at 7 knots gusting 14

Air temperature 2.2° C
Dewpoint -1.6° C

Last reported at 2015-Jan-28 00:31 UTC.
Time now 2015-Jan-28 01:27 UTC

Location: N 43°19' E 012°34'.
View on Google Maps.

See reports from other nearby stations

  
Tides and Currents Weather Stations Pressure Air Temp Water Temp Dewpoint Dewpoint Depression Visibility Wind Speed Wind Dir Waves Ship Positions
date/time (UTC)wind fromknots sea level pressurealtimeterstation pressurevisibilityair tempwater tempwave heightnotes
2015-Jan-28 00:31 355 7 gusting 14 2.2
2015-Jan-28 00:16 345 6 gusting 12 2.2
2015-Jan-28 00:01 334 8 gusting 12 2.2
2015-Jan-27 23:46 340 7 gusting 15 2.2
2015-Jan-27 23:31 022 7 gusting 15 1.7
2015-Jan-27 23:16 349 6 gusting 10 1.7
2015-Jan-27 23:01 355 2 gusting 8 1.1
2015-Jan-27 22:46 355 7 gusting 10 1.1
2015-Jan-27 22:31 319 3 gusting 6 1.1
2015-Jan-27 22:16 315 0 gusting 3 0.6
2015-Jan-27 22:01 278 0 gusting 2 0.6
2015-Jan-27 21:46 325 2 gusting 6 1.7
2015-Jan-27 21:31 319 2 gusting 6 1.7
2015-Jan-27 21:16 347 6 gusting 9 2.2
2015-Jan-27 21:01 330 6 gusting 10 2.2
2015-Jan-27 20:46 012 8 gusting 13 2.2
2015-Jan-27 20:31 352 10 gusting 14 2.8
2015-Jan-27 20:16 322 5 gusting 8 2.8
2015-Jan-27 20:01 291 1 gusting 5 3.9
2015-Jan-27 19:46 043 6 gusting 11 4.4
2015-Jan-27 19:31 040 4 gusting 11 4.4
2015-Jan-27 19:17 037 5 gusting 14 4.4
2015-Jan-27 19:01 019 9 gusting 12 5.0
2015-Jan-27 18:46 060 1 gusting 5 3.9
2015-Jan-27 18:31 043 3 gusting 6 3.9
2015-Jan-27 18:16 304 1 gusting 5 3.9
2015-Jan-27 18:01 313 1 gusting 5 3.9
2015-Jan-27 17:46 298 3 gusting 6 3.9
2015-Jan-27 17:31 291 4 gusting 9 3.9
2015-Jan-27 17:16 336 5 gusting 11 3.9
2015-Jan-27 17:01 329 4 gusting 8 3.9
2015-Jan-27 16:46 311 2 gusting 6 3.9
2015-Jan-27 16:31 291 3 gusting 8 3.9
2015-Jan-27 16:16 321 4 gusting 8 3.9
2015-Jan-27 16:01 001 2 gusting 7 4.4
2015-Jan-27 15:46 313 1 gusting 4 4.4
2015-Jan-27 15:31 349 4 gusting 6 4.4
2015-Jan-27 15:16 012 2 gusting 5 5.0
2015-Jan-27 15:01 011 4 gusting 6 5.0
2015-Jan-27 14:46 324 3 gusting 8 5.0
2015-Jan-27 14:31 333 4 gusting 7 5.0
2015-Jan-27 14:16 345 3 gusting 9 5.0
2015-Jan-27 14:01 330 6 gusting 8 5.6
2015-Jan-27 13:46 355 4 gusting 9 5.6
2015-Jan-27 13:31 065 0 gusting 1 6.1
2015-Jan-27 13:16 125 0 gusting 3 5.6
2015-Jan-27 13:01 116 2 gusting 6 5.6
2015-Jan-27 12:46 155 3 gusting 6 5.6
2015-Jan-27 12:31 119 1 gusting 5 5.6
2015-Jan-27 12:17 115 3 gusting 6 5.6
2015-Jan-27 12:01 108 3 gusting 6 5.6
2015-Jan-27 11:46 139 1 gusting 6 5.6
2015-Jan-27 11:31 134 2 gusting 6 5.6
2015-Jan-27 11:16 169 0 gusting 4 5.6
2015-Jan-27 11:01 148 0 gusting 2 5.6
2015-Jan-27 10:46 208 0 gusting 2 5.6
2015-Jan-27 10:30 131 5.0
2015-Jan-27 10:15 245 3.9
2015-Jan-27 10:00 218 3.3
2015-Jan-27 09:45 173 2.8
2015-Jan-27 09:30 305 0 gusting 2 1.7
2015-Jan-27 09:15 283 1 gusting 3 0.6
2015-Jan-27 09:00 283 0 gusting 3 -0.0
2015-Jan-27 08:45 299 -1.1
2015-Jan-27 08:30 005 -1.1
2015-Jan-27 08:15 329 -1.7
2015-Jan-27 08:00 080 -2.2
2015-Jan-27 07:45 231 -2.2
2015-Jan-27 07:30 177 -2.8
2015-Jan-27 07:14 115 -3.3
2015-Jan-27 06:59
2015-Jan-27 06:44
2015-Jan-27 05:44
2015-Jan-27 05:29
2015-Jan-27 05:14
2015-Jan-27 04:59
2015-Jan-27 04:44
2015-Jan-27 04:29
2015-Jan-27 04:14
2015-Jan-27 03:59
2015-Jan-27 03:43
2015-Jan-27 03:28
2015-Jan-27 03:13
2015-Jan-27 02:58
2015-Jan-27 02:43
2015-Jan-27 02:28
2015-Jan-27 02:13
2015-Jan-27 01:43 294 2 gusting 5 -1.7
2015-Jan-27 01:28 285 1 gusting 5 -1.7
2015-Jan-27 01:13 301 1 gusting 4 -1.7
2015-Jan-27 00:58 263 0 gusting 6 -1.1
2015-Jan-27 00:43 324 2 gusting 6 -1.1
2015-Jan-27 00:28 270 2 gusting 3 -1.1
2015-Jan-27 00:13 318 -0.6
2015-Jan-26 23:58 290 2 gusting 5 -0.0
2015-Jan-26 23:42 287 1 gusting 2 -0.0
2015-Jan-26 23:27 315 -0.0
2015-Jan-26 23:12 283 -0.0
2015-Jan-26 22:57 280 0 gusting 3 -0.0
2015-Jan-26 22:42 287 2 gusting 4 -0.0
2015-Jan-26 22:27 284 1 gusting 3 -0.0
2015-Jan-26 22:12 283 -0.0
2015-Jan-26 21:57 285 3 gusting 4 -0.0
2015-Jan-26 21:42 287 1 gusting 5 0.6
2015-Jan-26 21:27 304 1 gusting 5 0.6
2015-Jan-26 21:12 293 1 gusting 3 0.6
2015-Jan-26 20:57 340 0 gusting 2 1.1
2015-Jan-26 20:42 339 0 gusting 3 1.1
2015-Jan-26 20:27 306 1 gusting 4 1.1
2015-Jan-26 20:12 271 0 gusting 1 0.6
2015-Jan-26 19:57 274 -0.0
2015-Jan-26 19:42 285 1 gusting 2 -0.0
2015-Jan-26 19:27 280 0 gusting 1 -0.0
2015-Jan-26 19:12 346 0.6
2015-Jan-26 18:57 226 0.6
2015-Jan-26 18:42 319 1.1
2015-Jan-26 18:27 321 1 gusting 3 1.7
2015-Jan-26 18:12 323 1 gusting 3 1.7
2015-Jan-26 17:57 332 1 gusting 3 1.7
2015-Jan-26 17:42 345 2 gusting 5 1.7
2015-Jan-26 17:27 349 4 gusting 7 1.7
2015-Jan-26 17:12 330 0 gusting 1 2.2
2015-Jan-26 16:57 039 0 gusting 5 2.8
2015-Jan-26 16:42 045 1 gusting 3 2.8
2015-Jan-26 16:27 011 0 gusting 5 3.3
2015-Jan-26 16:12 023 3 gusting 5 3.3
2015-Jan-26 15:57 337 3 gusting 5 3.3
2015-Jan-26 15:42 052 2 gusting 6 3.9
2015-Jan-26 15:27 045 2 gusting 7 3.9
2015-Jan-26 15:12 036 3 gusting 10 4.4
2015-Jan-26 14:57 036 6 gusting 12 4.4
2015-Jan-26 14:42 018 4 gusting 9 4.4
2015-Jan-26 14:27 025 4 gusting 13 4.4
2015-Jan-26 14:12 025 6 gusting 9 5.0
2015-Jan-26 13:56 046 3 gusting 6 5.0
2015-Jan-26 13:41 027 5 gusting 13 5.0
2015-Jan-26 13:26 135 2 gusting 6 5.0
2015-Jan-26 13:11 001 6 gusting 14 5.0
2015-Jan-26 12:56 053 2 gusting 6 5.0
2015-Jan-26 12:41 015 5 gusting 12 4.4
2015-Jan-26 12:26 336 3 gusting 12 4.4
2015-Jan-26 12:11 020 6 gusting 10 4.4
2015-Jan-26 11:56 049 4 gusting 6 4.4
2015-Jan-26 11:41 335 1 gusting 9 4.4
2015-Jan-26 11:26 061 6 gusting 9 4.4
2015-Jan-26 11:11 347 4 gusting 7 4.4
2015-Jan-26 10:56 083 1 gusting 5 4.4
2015-Jan-26 10:41 013 11 gusting 13 3.9
2015-Jan-26 10:26 342 3 gusting 6 4.4
2015-Jan-26 10:11 117 3.9
2015-Jan-26 09:56 106 3.9
2015-Jan-26 09:40 329 2 gusting 5 3.9
2015-Jan-26 09:26 008 0 gusting 2 3.9
2015-Jan-26 09:10 036 2 gusting 8 3.3
2015-Jan-26 08:55 013 1 gusting 6 3.3
2015-Jan-26 08:40 018 2 gusting 3 3.3
2015-Jan-26 08:25
2015-Jan-26 08:10
2015-Jan-26 07:55
2015-Jan-26 07:40
2015-Jan-26 07:25
2015-Jan-26 07:10
2015-Jan-26 06:55
2015-Jan-26 05:39
2015-Jan-26 05:24
2015-Jan-26 05:09
2015-Jan-26 04:54
2015-Jan-26 04:39
2015-Jan-26 04:25
2015-Jan-26 04:09
2015-Jan-26 03:54
2015-Jan-26 03:39
2015-Jan-26 03:24
2015-Jan-26 03:08
2015-Jan-26 02:53
2015-Jan-26 02:38
2015-Jan-26 02:23
2015-Jan-26 02:08
2015-Jan-26 01:53 041 5 gusting 7 2.2
2015-Jan-26 01:38 058 0 gusting 6 2.2
2015-Jan-26 01:23 019 5 gusting 9 2.2
2015-Jan-26 01:08 022 2 gusting 9 2.2